Terminal Aerodrome Forecast
Issued by NWS Quad Cities IA IL

Home | Current Version | Previous Version | Text Only | Print | Product List | Glossary On
Versions: 1 2 3 4 5 6 7 8 9 10 11 12 13 14 15 16 17
000
FTUS43 KDVN 311700
TAFDBQ
TAF
KDBQ 311720Z 3118/0118 28009KT P6SM BKN050
     FM010200 26003KT P6SM SCT050
     FM011000 26003KT 6SM BR SCT200
     FM011600 25006KT P6SM FEW040=

USA.gov is the U.S. government's official web portal to all federal, state and local government web resources and services.